Time,TemperatureF,DewpointF,PressureIn,WindDirection,WindDirectionDegrees,WindSpeedMPH,WindSpeedGustMPH,Humidity,HourlyPrecipIn,Conditions,Clouds,dailyrainin,SoftwareType,DateUTC
2017-06-23 00:03:00,66.8,65.6,29.64,NNW,346,5.0,9.0,96,0.00,,---,0.00,VWS V15.00,2017-06-23 05:03:00,
2017-06-23 00:06:00,66.8,66.0,29.64,North,355,3.0,15.0,96,0.00,,,0.00,weatherlink.com 1.10,2017-06-23 05:06:00,
2017-06-23 00:08:00,66.8,65.6,29.63,NNE,32,5.0,8.0,96,0.00,,---,0.00,VWS V15.00,2017-06-23 05:08:00,
2017-06-23 00:13:00,66.5,65.3,29.62,NNE,20,11.0,13.0,96,0.00,,---,0.00,VWS V15.00,2017-06-23 05:13:00,
2017-06-23 00:18:00,66.5,65.3,29.62,NE,36,8.0,8.0,96,0.00,,---,0.00,VWS V15.00,2017-06-23 05:18:00,
2017-06-23 00:23:00,66.5,65.3,29.61,NE,34,0.0,2.0,96,0.00,,---,0.00,VWS V15.00,2017-06-23 05:23:00,
2017-06-23 00:24:00,66.5,65.0,29.61,WSW,258,2.0,10.0,96,0.01,,,0.01,weatherlink.com 1.10,2017-06-23 05:24:00,
2017-06-23 00:28:00,66.5,65.3,29.62,NW,325,2.0,5.0,96,0.05,,---,0.05,VWS V15.00,2017-06-23 05:28:00,
2017-06-23 00:33:00,66.0,64.8,29.63,NNW,346,5.0,10.0,96,0.19,,---,0.19,VWS V15.00,2017-06-23 05:33:00,
2017-06-23 00:38:00,65.8,64.6,29.63,WNW,286,0.0,0.0,96,0.19,,---,0.19,VWS V15.00,2017-06-23 05:38:00,
2017-06-23 00:41:00,65.7,65.0,29.62,North,349,4.0,12.0,96,0.21,,,0.21,weatherlink.com 1.10,2017-06-23 05:41:00,
2017-06-23 00:43:00,65.7,64.5,29.62,NW,310,4.0,6.0,96,0.22,,---,0.22,VWS V15.00,2017-06-23 05:43:00,
2017-06-23 00:48:00,65.6,64.4,29.65,WNW,288,0.0,5.0,96,0.23,,---,0.23,VWS V15.00,2017-06-23 05:48:00,
2017-06-23 00:53:00,65.5,64.3,29.64,WSW,242,0.0,4.0,96,0.35,,---,0.35,VWS V15.00,2017-06-23 05:53:00,
2017-06-23 00:58:00,65.4,64.2,29.62,WSW,242,0.0,0.0,96,0.43,,---,0.43,VWS V15.00,2017-06-23 05:58:00,
2017-06-23 00:59:00,65.3,64.0,29.61,WSW,242,0.0,7.0,96,0.45,,,0.45,weatherlink.com 1.10,2017-06-23 05:59:00,
2017-06-23 01:03:00,65.3,64.1,29.62,WSW,244,0.0,0.0,96,0.47,,---,0.47,VWS V15.00,2017-06-23 06:03:00,
2017-06-23 01:08:00,65.2,64.3,29.64,WSW,253,6.0,6.0,97,0.49,,---,0.49,VWS V15.00,2017-06-23 06:08:00,
2017-06-23 01:13:00,65.2,64.3,29.64,WSW,252,0.0,0.0,97,0.50,,---,0.50,VWS V15.00,2017-06-23 06:13:00,
2017-06-23 01:16:00,65.2,64.0,29.63,West,259,1.0,6.0,97,0.51,,,0.51,weatherlink.com 1.10,2017-06-23 06:16:00,
2017-06-23 01:18:00,65.1,64.2,29.64,West,262,0.0,5.0,97,0.51,,---,0.51,VWS V15.00,2017-06-23 06:18:00,
2017-06-23 01:23:00,65.2,64.3,29.62,NNE,23,6.0,7.0,97,0.53,,---,0.53,VWS V15.00,2017-06-23 06:23:00,
2017-06-23 01:28:00,65.1,64.2,29.60,North,5,8.0,8.0,97,0.49,,---,0.54,VWS V15.00,2017-06-23 06:28:00,
2017-06-23 01:33:00,65.2,64.3,29.60,North,355,2.0,5.0,97,0.35,,---,0.54,VWS V15.00,2017-06-23 06:33:00,
2017-06-23 01:34:00,65.2,64.0,29.60,North,355,0.0,11.0,97,0.36,,,0.55,weatherlink.com 1.10,2017-06-23 06:34:00,
2017-06-23 01:38:00,65.2,64.3,29.60,North,355,4.0,4.0,97,0.36,,---,0.55,VWS V15.00,2017-06-23 06:38:00,
2017-06-23 01:43:00,65.2,64.3,29.60,North,5,2.0,7.0,97,0.33,,---,0.55,VWS V15.00,2017-06-23 06:43:00,
2017-06-23 01:48:00,65.2,64.3,29.59,North,5,6.0,6.0,97,0.32,,---,0.55,VWS V15.00,2017-06-23 06:48:00,
2017-06-23 01:50:00,65.2,64.0,29.59,North,9,0.0,8.0,97,0.29,,,0.56,weatherlink.com 1.10,2017-06-23 06:50:00,
2017-06-23 01:53:00,65.1,64.2,29.58,North,10,0.0,0.0,97,0.23,,---,0.56,VWS V15.00,2017-06-23 06:53:00,
2017-06-23 01:58:00,65.1,64.2,29.59,North,10,0.0,0.0,97,0.13,,---,0.56,VWS V15.00,2017-06-23 06:58:00,
2017-06-23 02:03:00,65.1,64.2,29.60,North,10,0.0,0.0,97,0.09,,---,0.56,VWS V15.00,2017-06-23 07:03:00,
2017-06-23 02:08:00,65.1,64.2,29.60,North,10,0.0,0.0,97,0.07,,---,0.56,VWS V15.00,2017-06-23 07:08:00,
2017-06-23 02:13:00,65.1,64.2,29.60,North,11,0.0,0.0,97,0.06,,---,0.56,VWS V15.00,2017-06-23 07:13:00,
2017-06-23 02:18:00,65.0,64.1,29.60,North,11,0.0,0.0,97,0.05,,---,0.56,VWS V15.00,2017-06-23 07:18:00,
2017-06-23 02:23:00,65.0,64.1,29.60,North,10,0.0,0.0,97,0.03,,---,0.56,VWS V15.00,2017-06-23 07:23:00,
2017-06-23 02:25:00,65.0,64.0,29.60,North,10,0.0,0.0,97,0.03,,,0.56,weatherlink.com 1.10,2017-06-23 07:25:00,
2017-06-23 02:28:00,65.0,64.1,29.59,North,10,0.0,0.0,97,0.02,,---,0.56,VWS V15.00,2017-06-23 07:28:00,
2017-06-23 02:33:00,65.0,64.1,29.60,North,10,0.0,0.0,97,0.03,,---,0.57,VWS V15.00,2017-06-23 07:33:00,
2017-06-23 02:38:00,65.0,64.1,29.61,North,10,0.0,0.0,97,0.02,,---,0.57,VWS V15.00,2017-06-23 07:38:00,
2017-06-23 02:42:00,65.0,64.0,29.63,NW,308,1.0,5.0,97,0.02,,,0.57,weatherlink.com 1.10,2017-06-23 07:42:00,
2017-06-23 02:43:00,65.0,64.1,29.63,West,266,5.0,6.0,97,0.02,,---,0.57,VWS V15.00,2017-06-23 07:43:00,
2017-06-23 02:48:00,64.9,64.0,29.63,SW,229,4.0,6.0,97,0.06,,---,0.61,VWS V15.00,2017-06-23 07:48:00,
2017-06-23 02:53:00,64.9,64.0,29.60,SSW,200,0.0,0.0,97,0.08,,---,0.64,VWS V15.00,2017-06-23 07:53:00,
2017-06-23 02:58:00,64.9,64.0,29.59,SSW,200,0.0,0.0,97,0.11,,---,0.67,VWS V15.00,2017-06-23 07:58:00,
2017-06-23 03:00:00,64.8,64.0,29.60,SSW,200,0.0,0.0,97,0.11,,,0.67,weatherlink.com 1.10,2017-06-23 08:00:00,
2017-06-23 03:03:00,64.8,63.9,29.61,SSW,200,0.0,0.0,97,0.12,,---,0.68,VWS V15.00,2017-06-23 08:03:00,
2017-06-23 03:08:00,64.8,63.9,29.60,West,268,0.0,0.0,97,0.13,,---,0.69,VWS V15.00,2017-06-23 08:08:00,
2017-06-23 03:13:00,64.7,63.8,29.59,West,269,0.0,0.0,97,0.14,,---,0.70,VWS V15.00,2017-06-23 08:13:00,
2017-06-23 03:16:00,64.7,64.0,29.59,West,269,0.0,2.0,97,0.15,,,0.71,weatherlink.com 1.10,2017-06-23 08:16:00,
2017-06-23 03:18:00,64.6,63.7,29.60,West,269,0.0,0.0,97,0.15,,---,0.71,VWS V15.00,2017-06-23 08:18:00,
2017-06-23 03:23:00,64.6,63.7,29.60,West,269,0.0,0.0,97,0.17,,---,0.73,VWS V15.00,2017-06-23 08:23:00,
2017-06-23 03:28:00,64.6,63.7,29.60,West,269,0.0,0.0,97,0.19,,---,0.75,VWS V15.00,2017-06-23 08:28:00,
2017-06-23 03:33:00,64.5,63.6,29.60,West,269,0.0,0.0,97,0.20,,---,0.77,VWS V15.00,2017-06-23 08:33:00,
2017-06-23 03:34:00,64.5,64.0,29.60,West,269,0.0,0.0,97,0.20,,,0.77,weatherlink.com 1.10,2017-06-23 08:34:00,
2017-06-23 03:38:00,64.5,63.6,29.60,West,269,0.0,0.0,97,0.20,,---,0.77,VWS V15.00,2017-06-23 08:38:00,
2017-06-23 03:43:00,64.5,63.6,29.59,West,269,0.0,0.0,97,0.20,,---,0.77,VWS V15.00,2017-06-23 08:43:00,
2017-06-23 03:48:00,64.5,63.6,29.59,West,269,0.0,0.0,97,0.17,,---,0.77,VWS V15.00,2017-06-23 08:48:00,
2017-06-23 03:51:00,64.4,64.0,29.59,West,269,0.0,0.0,97,0.15,,,0.78,weatherlink.com 1.10,2017-06-23 08:51:00,
2017-06-23 03:53:00,64.4,63.5,29.59,West,269,0.0,0.0,97,0.14,,---,0.78,VWS V15.00,2017-06-23 08:53:00,
2017-06-23 03:58:00,64.3,63.4,29.60,West,269,0.0,0.0,97,0.11,,---,0.78,VWS V15.00,2017-06-23 08:58:00,
2017-06-23 04:03:00,64.3,63.4,29.60,West,269,0.0,0.0,97,0.10,,---,0.78,VWS V15.00,2017-06-23 09:03:00,
2017-06-23 04:08:00,64.3,63.4,29.61,West,269,0.0,0.0,97,0.09,,---,0.78,VWS V15.00,2017-06-23 09:08:00,
2017-06-23 04:09:00,64.3,64.0,29.61,West,269,0.0,0.0,97,0.09,,,0.78,weatherlink.com 1.10,2017-06-23 09:09:00,
2017-06-23 04:13:00,64.3,63.4,29.61,West,269,0.0,0.0,97,0.08,,---,0.78,VWS V15.00,2017-06-23 09:13:00,
2017-06-23 04:18:00,64.3,63.4,29.62,West,269,0.0,0.0,97,0.08,,---,0.79,VWS V15.00,2017-06-23 09:18:00,
2017-06-23 04:23:00,64.4,63.8,29.62,West,267,0.0,2.0,98,0.06,,---,0.79,VWS V15.00,2017-06-23 09:23:00,
2017-06-23 04:26:00,64.4,64.0,29.62,West,267,0.0,4.0,97,0.04,,,0.79,weatherlink.com 1.10,2017-06-23 09:26:00,
2017-06-23 04:28:00,64.3,63.4,29.61,West,267,0.0,0.0,97,0.04,,---,0.79,VWS V15.00,2017-06-23 09:28:00,
2017-06-23 04:33:00,64.4,63.8,29.62,West,267,0.0,0.0,98,0.02,,---,0.79,VWS V15.00,2017-06-23 09:33:00,
2017-06-23 04:38:00,64.4,63.8,29.62,West,267,0.0,0.0,98,0.02,,---,0.79,VWS V15.00,2017-06-23 09:38:00,
2017-06-23 04:43:00,64.4,63.8,29.62,West,267,0.0,0.0,98,0.02,,---,0.79,VWS V15.00,2017-06-23 09:43:00,
2017-06-23 04:44:00,64.4,64.0,29.62,West,267,0.0,0.0,98,0.02,,,0.79,weatherlink.com 1.10,2017-06-23 09:44:00,
2017-06-23 04:48:00,64.4,63.8,29.62,West,267,1.0,2.0,98,0.02,,---,0.79,VWS V15.00,2017-06-23 09:48:00,
2017-06-23 04:53:00,64.5,63.9,29.62,West,273,5.0,5.0,98,0.01,,---,0.79,VWS V15.00,2017-06-23 09:53:00,
2017-06-23 04:58:00,64.5,63.9,29.62,West,273,0.0,0.0,98,0.01,,---,0.79,VWS V15.00,2017-06-23 09:58:00,
2017-06-23 05:00:00,64.5,64.0,29.62,West,273,0.0,8.0,98,0.02,,,0.80,weatherlink.com 1.10,2017-06-23 10:00:00,
2017-06-23 05:03:00,64.5,63.9,29.62,West,278,0.0,0.0,98,0.02,,---,0.80,VWS V15.00,2017-06-23 10:03:00,
2017-06-23 05:08:00,64.4,63.5,29.62,WNW,284,0.0,2.0,97,0.03,,---,0.81,VWS V15.00,2017-06-23 10:08:00,
2017-06-23 05:13:00,64.2,63.3,29.62,WNW,284,0.0,0.0,97,0.03,,---,0.81,VWS V15.00,2017-06-23 10:13:00,
2017-06-23 05:18:00,64.1,63.5,29.61,WNW,284,0.0,0.0,98,0.02,,---,0.81,VWS V15.00,2017-06-23 10:18:00,
2017-06-23 05:23:00,64.0,63.4,29.61,WNW,284,0.0,0.0,98,0.02,,---,0.81,VWS V15.00,2017-06-23 10:23:00,
2017-06-23 05:28:00,63.8,62.9,29.61,NW,324,1.0,5.0,97,0.02,,---,0.81,VWS V15.00,2017-06-23 10:28:00,
2017-06-23 05:33:00,63.6,62.7,29.62,NW,324,0.0,0.0,97,0.02,,---,0.81,VWS V15.00,2017-06-23 10:33:00,
2017-06-23 05:35:00,63.5,63.0,29.62,NW,324,0.0,6.0,97,0.02,,,0.81,weatherlink.com 1.10,2017-06-23 10:35:00,
2017-06-23 05:38:00,63.4,62.5,29.62,NW,324,0.0,0.0,97,0.02,,---,0.81,VWS V15.00,2017-06-23 10:38:00,
2017-06-23 05:43:00,63.2,62.3,29.62,NW,323,4.0,4.0,97,0.02,,---,0.81,VWS V15.00,2017-06-23 10:43:00,
2017-06-23 05:48:00,62.9,62.0,29.62,NW,317,4.0,4.0,97,0.02,,---,0.81,VWS V15.00,2017-06-23 10:48:00,
2017-06-23 05:53:00,62.6,61.7,29.62,NW,316,0.0,0.0,97,0.02,,---,0.81,VWS V15.00,2017-06-23 10:53:00,
2017-06-23 05:58:00,62.5,61.6,29.62,NW,315,2.0,3.0,97,0.02,,---,0.81,VWS V15.00,2017-06-23 10:58:00,
2017-06-23 06:03:00,62.4,61.5,29.62,NW,315,0.0,0.0,97,0.01,,---,0.81,VWS V15.00,2017-06-23 11:03:00,
2017-06-23 06:08:00,62.4,61.5,29.62,NW,315,0.0,0.0,97,0.00,,---,0.81,VWS V15.00,2017-06-23 11:08:00,
2017-06-23 06:10:00,62.4,62.0,29.62,NW,315,0.0,0.0,97,0.00,,,0.81,weatherlink.com 1.10,2017-06-23 11:10:00,
2017-06-23 06:13:00,62.4,61.5,29.62,NW,315,0.0,0.0,97,0.00,,---,0.81,VWS V15.00,2017-06-23 11:13:00,
2017-06-23 06:18:00,62.5,61.9,29.62,NW,314,1.0,2.0,98,0.00,,---,0.81,VWS V15.00,2017-06-23 11:18:00,
2017-06-23 06:23:00,62.7,62.1,29.62,NW,312,2.0,5.0,98,0.00,,---,0.81,VWS V15.00,2017-06-23 11:23:00,
2017-06-23 06:27:00,62.9,62.0,29.62,NW,308,4.0,6.0,98,0.00,,,0.81,weatherlink.com 1.10,2017-06-23 11:27:00,
2017-06-23 06:28:00,62.9,62.3,29.62,NW,308,0.0,3.0,98,0.00,,---,0.81,VWS V15.00,2017-06-23 11:28:00,
2017-06-23 06:33:00,63.0,62.4,29.62,WNW,284,1.0,2.0,98,0.00,,---,0.81,VWS V15.00,2017-06-23 11:33:00,
2017-06-23 06:38:00,63.2,62.6,29.62,NW,309,2.0,2.0,98,0.00,,---,0.81,VWS V15.00,2017-06-23 11:38:00,
2017-06-23 06:43:00,63.4,62.8,29.62,West,279,1.0,7.0,98,0.00,,---,0.81,VWS V15.00,2017-06-23 11:43:00,
2017-06-23 06:48:00,63.7,63.1,29.62,NW,315,5.0,9.0,98,0.00,,---,0.81,VWS V15.00,2017-06-23 11:48:00,
2017-06-23 06:53:00,63.9,63.3,29.61,NW,304,5.0,7.0,98,0.00,,---,0.81,VWS V15.00,2017-06-23 11:53:00,
2017-06-23 06:58:00,64.0,63.4,29.61,WNW,291,2.0,2.0,98,0.00,,---,0.81,VWS V15.00,2017-06-23 11:58:00,
2017-06-23 07:03:00,64.0,63.4,29.61,NNW,338,1.0,6.0,98,0.00,,---,0.81,VWS V15.00,2017-06-23 12:03:00,
2017-06-23 07:08:00,64.1,63.5,29.61,NW,317,5.0,5.0,98,0.00,,---,0.81,VWS V15.00,2017-06-23 12:08:00,
2017-06-23 07:13:00,64.2,63.6,29.61,WNW,297,5.0,5.0,98,0.00,,---,0.81,VWS V15.00,2017-06-23 12:13:00,
2017-06-23 07:18:00,64.3,63.7,29.61,NW,315,3.0,6.0,98,0.00,,---,0.81,VWS V15.00,2017-06-23 12:18:00,
2017-06-23 07:23:00,64.3,63.7,29.61,WNW,290,1.0,6.0,98,0.00,,---,0.81,VWS V15.00,2017-06-23 12:23:00,
2017-06-23 07:28:00,64.3,63.7,29.61,WNW,302,0.0,5.0,98,0.00,,---,0.81,VWS V15.00,2017-06-23 12:28:00,
2017-06-23 07:33:00,64.3,63.7,29.61,NW,307,3.0,3.0,98,0.00,,---,0.81,VWS V15.00,2017-06-23 12:33:00,
2017-06-23 07:38:00,64.4,63.8,29.61,West,276,0.0,0.0,98,0.00,,---,0.81,VWS V15.00,2017-06-23 12:38:00,
2017-06-23 07:43:00,64.5,63.9,29.61,West,276,0.0,6.0,98,0.00,,---,0.81,VWS V15.00,2017-06-23 12:43:00,
2017-06-23 07:44:00,64.6,64.0,29.61,West,277,0.0,0.0,98,0.00,,---,0.81,VWS V15.00,2017-06-23 12:44:00,
2017-06-23 07:49:00,64.7,64.1,29.61,NW,317,0.0,2.0,98,0.00,,---,0.81,VWS V15.00,2017-06-23 12:49:00,
2017-06-23 07:54:00,65.1,64.5,29.62,WNW,288,6.0,6.0,98,0.00,,---,0.81,VWS V15.00,2017-06-23 12:54:00,
2017-06-23 07:59:00,65.7,65.1,29.62,WNW,284,0.0,4.0,98,0.00,,---,0.81,VWS V15.00,2017-06-23 12:59:00,
2017-06-23 08:04:00,66.4,65.8,29.62,WNW,300,0.0,0.0,98,0.00,,---,0.81,VWS V15.00,2017-06-23 13:04:00,
2017-06-23 08:09:00,66.6,66.0,29.62,NW,311,0.0,2.0,98,0.00,,---,0.81,VWS V15.00,2017-06-23 13:09:00,
2017-06-23 08:14:00,66.6,66.0,29.62,WNW,296,0.0,0.0,98,0.00,,---,0.81,VWS V15.00,2017-06-23 13:14:00,
2017-06-23 08:19:00,66.6,66.0,29.62,WNW,289,3.0,7.0,98,0.00,,---,0.81,VWS V15.00,2017-06-23 13:19:00,
2017-06-23 08:24:00,66.7,66.1,29.62,WNW,298,0.0,2.0,98,0.00,,---,0.81,VWS V15.00,2017-06-23 13:24:00,